Time;durP1;ratioP1;P1;durP2;ratioP2;P2;SDS_P1;SDS_P2;PMS_P1;PMS_P2;Temp;Humidity;BMP_temperature;BMP_pressure;BME280_temperature;BME280_humidity;BME280_pressure;Samples;Min_cycle;Max_cycle;Signal;HPM_P1;HPM_P2
2021/01/01 00:02:20;;;;;;;13.37;6.70;;;4.60;90.70;;;;;;5052166;28;20382;-73
2021/01/01 00:04:45;;;;;;;10.97;6.37;;;4.60;90.70;;;;;;5051727;28;20033;-73
2021/01/01 00:07:11;;;;;;;10.73;5.50;;;4.70;90.70;;;;;;5052392;28;20029;-73
2021/01/01 00:09:36;;;;;;;10.23;5.90;;;4.70;90.60;;;;;;5053026;28;20021;-73
2021/01/01 00:12:02;;;;;;;9.27;5.43;;;4.70;90.70;;;;;;5051827;28;20078;-74
2021/01/01 00:14:28;;;;;;;9.73;5.80;;;4.70;90.60;;;;;;5052585;28;20573;-74
2021/01/01 00:16:54;;;;;;;12.17;5.70;;;4.70;90.50;;;;;;5051611;28;20051;-74
2021/01/01 00:19:19;;;;;;;11.67;5.53;;;4.70;90.60;;;;;;5050911;28;20528;-73
2021/01/01 00:21:45;;;;;;;12.70;5.70;;;4.70;90.50;;;;;;5051205;28;20021;-73
2021/01/01 00:24:10;;;;;;;11.27;5.60;;;4.70;90.50;;;;;;5050779;28;20114;-73
2021/01/01 00:26:36;;;;;;;11.73;6.27;;;4.70;90.50;;;;;;5051203;28;20382;-73
2021/01/01 00:29:02;;;;;;;9.13;5.13;;;4.70;90.60;;;;;;5051362;28;20116;-74
2021/01/01 00:31:28;;;;;;;9.30;4.77;;;4.70;90.50;;;;;;5050881;28;20120;-74
2021/01/01 00:33:54;;;;;;;8.03;4.63;;;4.70;90.50;;;;;;5052925;28;20071;-73
2021/01/01 00:36:21;;;;;;;7.83;4.80;;;4.70;90.50;;;;;;5050737;28;20459;-73
2021/01/01 00:38:52;;;;;;;7.53;4.30;;;4.60;90.50;;;;;;5051412;28;20032;-74
2021/01/01 00:41:31;;;;;;;6.13;4.55;;;4.60;90.70;;;;;;5051474;28;20454;-74
2021/01/01 00:43:58;;;;;;;8.17;4.83;;;4.60;90.60;;;;;;5052420;28;20037;-74
2021/01/01 00:46:25;;;;;;;8.87;4.93;;;4.60;90.60;;;;;;5050619;28;20029;-73
2021/01/01 00:48:51;;;;;;;9.70;5.77;;;4.60;90.60;;;;;;5051302;28;20417;-74
2021/01/01 00:51:24;;;;;;;11.07;6.03;;;4.60;90.70;;;;;;5052422;28;20115;-73
2021/01/01 00:53:50;;;;;;;11.07;6.10;;;4.60;90.70;;;;;;5052422;28;20124;-73
2021/01/01 00:56:23;;;;;;;17.00;8.40;;;4.70;90.80;;;;;;5050607;28;20067;-73
2021/01/01 00:58:50;;;;;;;17.47;8.77;;;4.60;90.90;;;;;;5052358;28;20029;-73
2021/01/01 01:01:21;;;;;;;17.17;8.37;;;4.60;90.90;;;;;;5050492;28;20463;-73
2021/01/01 01:03:48;;;;;;;19.73;10.07;;;4.60;91.20;;;;;;5051271;28;20033;-73
2021/01/01 01:06:14;;;;;;;19.53;9.60;;;4.50;91.30;;;;;;5051681;28;20033;-73
2021/01/01 01:08:41;;;;;;;18.50;9.87;;;4.60;91.30;;;;;;5050732;28;20480;-74
2021/01/01 01:11:06;;;;;;;19.37;10.03;;;4.50;91.40;;;;;;5052360;28;20033;-73
2021/01/01 01:13:32;;;;;;;19.33;10.47;;;4.50;91.40;;;;;;5051928;28;20265;-73
2021/01/01 01:15:57;;;;;;;21.67;10.70;;;4.50;91.50;;;;;;5050885;28;20462;-74
2021/01/01 01:18:23;;;;;;;20.33;10.60;;;4.40;91.60;;;;;;5051272;28;20040;-73
2021/01/01 01:20:49;;;;;;;19.53;10.10;;;4.40;91.70;;;;;;5050951;28;20067;-73
2021/01/01 01:23:14;;;;;;;17.97;9.93;;;4.40;91.70;;;;;;5051404;28;20061;-73
2021/01/01 01:25:40;;;;;;;19.50;10.10;;;4.40;91.70;;;;;;5050946;28;20501;-73
2021/01/01 01:28:06;;;;;;;18.07;10.07;;;4.30;91.70;;;;;;5052384;28;20029;-74
2021/01/01 01:30:31;;;;;;;22.00;9.90;;;4.30;91.70;;;;;;5050264;28;20036;-73
2021/01/01 01:32:57;;;;;;;21.80;10.80;;;4.30;91.80;;;;;;5050866;28;20025;-74
2021/01/01 01:35:23;;;;;;;19.77;11.10;;;4.30;91.80;;;;;;5050152;28;20029;-73
2021/01/01 01:37:48;;;;;;;21.07;10.93;;;4.30;91.90;;;;;;5051751;28;20378;-73
2021/01/01 01:40:14;;;;;;;20.87;11.00;;;4.30;91.90;;;;;;5051724;28;20466;-73
2021/01/01 01:42:40;;;;;;;24.30;11.23;;;4.30;91.90;;;;;;5050625;28;20413;-73
2021/01/01 01:45:07;;;;;;;24.53;11.90;;;4.30;91.90;;;;;;5050626;28;20029;-73
2021/01/01 01:47:33;;;;;;;23.67;11.97;;;4.30;92.00;;;;;;5050056;28;20489;-73
2021/01/01 01:50:00;;;;;;;23.63;11.23;;;4.40;92.10;;;;;;5050568;28;20156;-73
2021/01/01 01:52:25;;;;;;;22.43;11.73;;;4.40;92.00;;;;;;5050054;28;20036;-73
2021/01/01 01:54:53;;;;;;;22.80;11.27;;;4.30;92.10;;;;;;5055484;28;20040;-74
2021/01/01 01:57:21;;;;;;;26.27;12.40;;;4.30;92.20;;;;;;5053668;28;20032;-73
2021/01/01 01:59:51;;;;;;;25.07;12.97;;;4.30;92.20;;;;;;5054172;28;20029;-74
2021/01/01 02:02:17;;;;;;;23.80;11.40;;;4.30;92.20;;;;;;5055260;28;20083;-73
2021/01/01 02:04:44;;;;;;;16.13;8.10;;;4.30;92.20;;;;;;5054047;28;20037;-73
2021/01/01 02:07:10;;;;;;;20.33;10.13;;;4.20;91.80;;;;;;5054126;28;20103;-74
2021/01/01 02:09:35;;;;;;;14.67;8.20;;;4.20;91.70;;;;;;5054423;28;20025;-74
2021/01/01 02:12:01;;;;;;;16.87;8.73;;;4.20;91.50;;;;;;5053957;28;20514;-74
2021/01/01 02:14:27;;;;;;;17.57;9.37;;;4.30;91.40;;;;;;5054875;28;20063;-73
2021/01/01 02:16:53;;;;;;;15.43;6.77;;;4.30;91.50;;;;;;5055205;28;20029;-73
2021/01/01 02:19:18;;;;;;;11.43;5.97;;;4.30;91.10;;;;;;5053259;28;20417;-73
2021/01/01 02:21:44;;;;;;;9.17;5.13;;;4.30;90.70;;;;;;5053466;28;20033;-73
2021/01/01 02:24:11;;;;;;;8.17;4.70;;;4.30;90.30;;;;;;5053345;28;20056;-74
2021/01/01 02:26:37;;;;;;;7.73;4.57;;;4.30;90.20;;;;;;5054371;28;20231;-73
2021/01/01 02:29:03;;;;;;;6.90;4.43;;;4.30;90.10;;;;;;5054943;28;20029;-74
2021/01/01 02:31:29;;;;;;;7.67;4.20;;;4.30;90.20;;;;;;5053007;28;20072;-74
2021/01/01 02:33:55;;;;;;;7.33;4.00;;;4.30;89.90;;;;;;5053544;28;20025;-74
2021/01/01 02:36:21;;;;;;;7.70;4.20;;;4.30;89.90;;;;;;5054210;28;20053;-73
2021/01/01 02:38:47;;;;;;;13.37;4.50;;;4.30;89.60;;;;;;5053462;28;20028;-74
2021/01/01 02:41:13;;;;;;;6.17;3.63;;;4.30;89.70;;;;;;5054736;28;20031;-74
2021/01/01 02:43:39;;;;;;;8.10;4.13;;;4.30;89.40;;;;;;5054233;28;20144;-73
2021/01/01 02:46:05;;;;;;;6.17;3.23;;;4.30;90.10;;;;;;5054563;28;20056;-74
2021/01/01 02:48:30;;;;;;;7.23;3.73;;;4.30;89.60;;;;;;5052766;28;20032;-73
2021/01/01 02:50:56;;;;;;;6.80;3.50;;;4.20;89.30;;;;;;5054182;28;20029;-73
2021/01/01 02:53:22;;;;;;;7.47;3.90;;;4.30;89.10;;;;;;5053897;28;20521;-73
2021/01/01 02:55:49;;;;;;;6.53;3.60;;;4.20;89.30;;;;;;5054444;28;20025;-73
2021/01/01 02:58:14;;;;;;;6.47;3.70;;;4.20;89.20;;;;;;5053068;28;20146;-74
2021/01/01 03:00:42;;;;;;;5.90;3.37;;;4.20;89.20;;;;;;5052458;28;20037;-73
2021/01/01 03:03:08;;;;;;;6.93;4.10;;;4.20;89.10;;;;;;5052619;28;20029;-74
2021/01/01 03:05:35;;;;;;;6.70;3.67;;;4.20;89.10;;;;;;5051717;28;20126;-73
2021/01/01 03:08:00;;;;;;;6.43;3.70;;;4.20;89.10;;;;;;5052933;28;20021;-74
2021/01/01 03:10:26;;;;;;;6.77;3.73;;;4.20;89.10;;;;;;5053504;28;20166;-73
2021/01/01 03:12:52;;;;;;;6.23;3.23;;;4.20;88.80;;;;;;5053192;28;20457;-73
2021/01/01 03:15:17;;;;;;;6.00;3.20;;;4.10;88.50;;;;;;5052894;28;20025;-74
2021/01/01 03:17:43;;;;;;;4.70;3.00;;;4.10;88.40;;;;;;5053539;28;20017;-73
2021/01/01 03:20:10;;;;;;;8.57;3.10;;;4.00;88.50;;;;;;5052793;28;20032;-74
2021/01/01 03:22:36;;;;;;;6.03;3.50;;;4.00;88.10;;;;;;5051982;28;20497;-73
2021/01/01 03:25:04;;;;;;;6.87;3.57;;;4.10;88.10;;;;;;5052453;28;20045;-73
2021/01/01 03:27:29;;;;;;;5.17;3.23;;;4.10;88.10;;;;;;5053257;28;20025;-73
2021/01/01 03:29:55;;;;;;;6.13;3.23;;;4.00;87.70;;;;;;5052650;28;20538;-75
2021/01/01 03:32:21;;;;;;;5.40;2.83;;;4.00;88.00;;;;;;5052451;28;20063;-73
2021/01/01 03:34:46;;;;;;;6.63;3.33;;;4.00;87.80;;;;;;5053713;28;20033;-74
2021/01/01 03:37:12;;;;;;;5.10;3.30;;;4.00;88.00;;;;;;5053335;28;20029;-73
2021/01/01 03:39:37;;;;;;;4.57;2.90;;;4.00;88.00;;;;;;5051782;28;20021;-73
2021/01/01 03:42:03;;;;;;;6.50;2.97;;;3.90;87.70;;;;;;5052474;28;20025;-73
2021/01/01 03:44:29;;;;;;;5.17;2.80;;;3.90;87.90;;;;;;5051497;28;20029;-73
2021/01/01 03:46:54;;;;;;;4.80;2.60;;;3.90;87.70;;;;;;5053287;28;20025;-73
2021/01/01 03:49:20;;;;;;;4.97;2.63;;;3.90;87.60;;;;;;5052306;28;20055;-73
2021/01/01 03:51:46;;;;;;;4.60;2.87;;;3.90;87.20;;;;;;5051125;28;20044;-73
2021/01/01 03:54:11;;;;;;;4.37;2.60;;;3.90;87.30;;;;;;5053319;28;20187;-73
2021/01/01 03:56:37;;;;;;;3.57;2.63;;;3.80;87.30;;;;;;5051441;28;20025;-74
2021/01/01 03:59:03;;;;;;;3.87;2.50;;;3.80;87.20;;;;;;5052934;28;20429;-74
2021/01/01 04:01:28;;;;;;;5.33;3.20;;;3.80;87.40;;;;;;5052714;28;20466;-73
2021/01/01 04:03:54;;;;;;;4.07;2.50;;;3.80;87.50;;;;;;5051859;28;20033;-73
2021/01/01 04:06:20;;;;;;;4.23;2.80;;;3.70;87.60;;;;;;5053211;28;20458;-73
2021/01/01 04:08:45;;;;;;;4.43;2.43;;;3.70;87.90;;;;;;5052478;28;20351;-73
2021/01/01 04:11:11;;;;;;;4.13;2.40;;;3.70;87.60;;;;;;5052864;28;20033;-73
2021/01/01 04:13:36;;;;;;;3.97;2.23;;;3.80;87.50;;;;;;5052348;28;20029;-73
2021/01/01 04:16:03;;;;;;;3.97;2.47;;;3.80;87.80;;;;;;5052457;28;20036;-73
2021/01/01 04:18:28;;;;;;;3.67;2.57;;;3.80;87.00;;;;;;5050555;28;20024;-73
2021/01/01 04:20:54;;;;;;;3.93;2.23;;;3.80;86.70;;;;;;5051361;28;20032;-73
2021/01/01 04:23:19;;;;;;;3.27;2.10;;;3.70;86.90;;;;;;5052856;28;20057;-73
2021/01/01 04:25:48;;;;;;;4.13;2.37;;;3.70;87.00;;;;;;5052160;28;20108;-73
2021/01/01 04:28:14;;;;;;;4.30;2.17;;;3.80;87.40;;;;;;5052794;28;20067;-73
2021/01/01 04:30:40;;;;;;;2.80;1.97;;;3.70;87.30;;;;;;5050831;28;20021;-73
2021/01/01 04:33:05;;;;;;;3.27;2.10;;;3.70;87.10;;;;;;5052683;28;20462;-74
2021/01/01 04:35:31;;;;;;;3.77;2.00;;;3.70;86.90;;;;;;5050830;28;20025;-73
2021/01/01 04:37:56;;;;;;;2.60;1.57;;;3.70;87.00;;;;;;5051626;28;20182;-74
2021/01/01 04:40:22;;;;;;;2.97;1.73;;;3.60;87.10;;;;;;5051364;28;20021;-74
2021/01/01 04:42:48;;;;;;;2.60;1.63;;;3.60;86.50;;;;;;5051921;28;20104;-73
2021/01/01 04:45:16;;;;;;;3.50;1.90;;;3.60;86.60;;;;;;5052511;28;20032;-73
2021/01/01 04:47:41;;;;;;;3.23;1.80;;;3.50;86.50;;;;;;5050619;28;20025;-73
2021/01/01 04:50:07;;;;;;;3.93;2.07;;;3.50;86.80;;;;;;5052492;28;20025;-73
2021/01/01 04:52:34;;;;;;;3.93;1.90;;;3.50;87.40;;;;;;5050727;28;20390;-73
2021/01/01 04:55:00;;;;;;;3.47;1.93;;;3.50;86.70;;;;;;5052750;28;20043;-73
2021/01/01 04:57:29;;;;;;;3.43;1.80;;;3.40;86.80;;;;;;5051927;28;20029;-72
2021/01/01 04:59:55;;;;;;;5.50;1.67;;;3.40;86.90;;;;;;5051150;28;20071;-74
2021/01/01 05:02:21;;;;;;;4.57;2.00;;;3.40;86.80;;;;;;5052400;28;20052;-73
2021/01/01 05:04:48;;;;;;;2.83;1.90;;;3.30;86.80;;;;;;5050372;28;20068;-73
2021/01/01 05:07:18;;;;;;;2.67;1.80;;;3.30;87.00;;;;;;5052587;28;20492;-73
2021/01/01 05:09:44;;;;;;;2.57;1.77;;;3.30;87.00;;;;;;5050515;28;20039;-73
2021/01/01 05:12:11;;;;;;;2.63;1.60;;;3.30;87.00;;;;;;5052047;28;20053;-74
2021/01/01 05:14:37;;;;;;;1.90;1.70;;;3.30;86.90;;;;;;5050591;28;20116;-74
2021/01/01 05:17:03;;;;;;;2.80;1.70;;;3.30;86.70;;;;;;5051187;28;20078;-73
2021/01/01 05:19:43;;;;;;;4.03;1.47;;;3.30;86.40;;;;;;5050373;28;20025;-73
2021/01/01 05:22:11;;;;;;;2.70;1.67;;;3.30;86.60;;;;;;5052374;28;20048;-74
2021/01/01 05:24:47;;;;;;;2.90;1.83;;;3.30;86.30;;;;;;5049948;28;20057;-73
2021/01/01 05:27:15;;;;;;;2.90;1.67;;;3.30;86.40;;;;;;5051236;28;20029;-73
2021/01/01 05:29:54;;;;;;;2.13;1.57;;;3.30;86.60;;;;;;5053919;28;20421;-73
2021/01/01 05:32:28;;;;;;;2.70;1.70;;;3.30;86.70;;;;;;5054787;28;20021;-73
2021/01/01 05:34:58;;;;;;;3.93;1.80;;;3.30;86.60;;;;;;5054647;28;20075;-73
2021/01/01 05:37:31;;;;;;;2.80;1.80;;;3.30;86.70;;;;;;5054626;28;20029;-74
2021/01/01 05:40:11;;;;;;;2.93;1.90;;;3.30;86.70;;;;;;5055914;28;20040;-73
2021/01/01 05:42:39;;;;;;;4.27;1.93;;;3.30;86.30;;;;;;5053966;28;20604;-73
2021/01/01 05:45:16;;;;;;;2.70;1.80;;;3.30;86.60;;;;;;5054422;28;20394;-74
2021/01/01 05:47:42;;;;;;;3.13;1.90;;;3.20;86.60;;;;;;5053870;28;20074;-73
2021/01/01 05:50:09;;;;;;;3.27;1.80;;;3.20;86.90;;;;;;5055553;28;20040;-74
2021/01/01 05:52:34;;;;;;;2.83;1.93;;;3.20;87.00;;;;;;5053744;28;20029;-73
2021/01/01 05:55:02;;;;;;;3.30;2.20;;;3.20;87.20;;;;;;5054388;28;20032;-73
2021/01/01 05:57:39;;;;;;;3.57;2.00;;;3.10;87.20;;;;;;5055512;28;20025;-74
2021/01/01 06:00:06;;;;;;;4.10;2.30;;;3.10;87.40;;;;;;5054241;28;20043;-73
2021/01/01 06:02:37;;;;;;;2.97;2.13;;;3.10;87.50;;;;;;5053614;28;20025;-73
2021/01/01 06:05:07;;;;;;;5.53;2.85;;;3.10;87.40;;;;;;5054210;28;20462;-73
2021/01/01 06:07:36;;;;;;;3.37;2.23;;;3.10;87.40;;;;;;5053475;28;20029;-73
2021/01/01 06:10:04;;;;;;;3.70;2.20;;;3.10;87.30;;;;;;5055636;28;20051;-74
2021/01/01 06:12:34;;;;;;;3.77;2.30;;;3.10;87.70;;;;;;5053764;28;20028;-73
2021/01/01 06:15:00;;;;;;;3.47;2.30;;;3.10;87.00;;;;;;5054102;28;20386;-73
2021/01/01 06:17:34;;;;;;;4.17;2.60;;;3.10;87.10;;;;;;5053948;28;20052;-73
2021/01/01 06:20:00;;;;;;;4.50;2.30;;;3.20;87.20;;;;;;5054057;28;20025;-73
2021/01/01 06:22:29;;;;;;;4.63;2.40;;;3.20;87.80;;;;;;5055150;28;20036;-74
2021/01/01 06:25:03;;;;;;;5.20;2.30;;;3.20;86.90;;;;;;5052703;28;20533;-74
2021/01/01 06:27:31;;;;;;;2.97;2.20;;;3.20;86.90;;;;;;5053684;28;20025;-74
2021/01/01 06:30:24;;;;;;;3.90;2.47;;;3.20;87.00;;;;;;5053348;28;20087;-74
2021/01/01 06:32:51;;;;;;;3.27;2.17;;;3.10;86.80;;;;;;5050911;28;20057;-73
2021/01/01 06:35:18;;;;;;;4.10;2.40;;;3.10;87.10;;;;;;5054813;28;20025;-73
2021/01/01 06:37:47;;;;;;;4.23;2.50;;;3.10;86.90;;;;;;5053035;28;20413;-73
2021/01/01 06:40:22;;;;;;;4.20;2.23;;;3.10;87.00;;;;;;5052484;28;20467;-73
2021/01/01 06:42:58;;;;;;;4.00;2.47;;;3.00;87.30;;;;;;5054066;28;20021;-73
2021/01/01 06:45:30;;;;;;;4.30;2.40;;;3.00;87.40;;;;;;5053518;28;20029;-74
2021/01/01 06:47:56;;;;;;;;;;;3.00;87.40;;;;;;5054398;28;20028;-73
2021/01/01 06:50:38;;;;;;;5.50;2.50;;;3.00;87.50;;;;;;5054327;28;19909;-74
2021/01/01 06:53:15;;;;;;;5.10;2.37;;;3.00;87.70;;;;;;5054554;28;20037;-73
2021/01/01 06:55:47;;;;;;;7.47;2.90;;;2.90;87.80;;;;;;5053902;28;20025;-73
2021/01/01 06:58:13;;;;;;;;;;;3.00;87.90;;;;;;5053562;28;20025;-74
2021/01/01 07:00:44;;;;;;;6.00;2.73;;;3.00;87.70;;;;;;5052511;28;19905;-73
2021/01/01 07:03:30;;;;;;;4.15;2.50;;;3.00;87.60;;;;;;5052977;28;20037;-74
2021/01/01 07:06:02;;;;;;;7.07;3.43;;;3.00;87.60;;;;;;5053687;28;20051;-74
2021/01/01 07:08:39;;;;;;;5.13;3.03;;;3.00;87.70;;;;;;5054233;28;20052;-73
2021/01/01 07:11:07;;;;;;;5.50;3.10;;;3.00;87.60;;;;;;5053872;28;20544;-73
2021/01/01 07:13:46;;;;;;;6.57;3.30;;;3.00;87.60;;;;;;5052989;28;20057;-74
2021/01/01 07:16:13;;;;;;;6.63;3.30;;;3.00;87.60;;;;;;5053100;28;20025;-73
2021/01/01 07:18:39;;;;;;;6.40;3.67;;;3.00;87.70;;;;;;5052239;28;20031;-73
2021/01/01 07:21:09;;;;;;;6.43;3.07;;;3.00;88.00;;;;;;5054167;28;20120;-74
2021/01/01 07:23:36;;;;;;;7.27;3.87;;;3.00;88.00;;;;;;5051681;28;20061;-72
2021/01/01 07:26:02;;;;;;;6.50;3.57;;;3.00;88.00;;;;;;5052278;28;20021;-73
2021/01/01 07:28:28;;;;;;;7.13;3.43;;;3.00;88.00;;;;;;5052639;28;20055;-73
2021/01/01 07:30:55;;;;;;;6.23;3.77;;;3.00;88.00;;;;;;5053486;28;20025;-74
2021/01/01 07:33:31;;;;;;;8.60;4.37;;;3.00;88.10;;;;;;5053504;28;20033;-74
2021/01/01 07:35:59;;;;;;;6.60;3.53;;;3.00;88.20;;;;;;5052883;28;20117;-74
2021/01/01 07:38:26;;;;;;;6.17;3.57;;;3.00;88.30;;;;;;5053682;28;20031;-73
2021/01/01 07:40:52;;;;;;;7.03;3.93;;;2.90;88.50;;;;;;5053025;28;20032;-73
2021/01/01 07:43:19;;;;;;;6.97;3.80;;;2.90;88.60;;;;;;5053416;28;20116;-74
2021/01/01 07:45:44;;;;;;;6.03;3.50;;;3.00;88.70;;;;;;5051654;28;20029;-73
2021/01/01 07:48:10;;;;;;;7.93;4.03;;;3.00;88.70;;;;;;5052241;28;20029;-73
2021/01/01 07:50:38;;;;;;;7.63;3.93;;;3.10;88.70;;;;;;5051538;28;20069;-73
2021/01/01 07:53:05;;;;;;;8.17;4.07;;;3.10;88.20;;;;;;5053416;28;20021;-73
2021/01/01 07:55:31;;;;;;;6.63;3.70;;;3.10;88.40;;;;;;5052039;28;20047;-73
2021/01/01 07:58:00;;;;;;;6.50;3.70;;;3.10;88.90;;;;;;5052694;28;20711;-73
2021/01/01 08:00:30;;;;;;;10.20;4.80;;;3.00;88.70;;;;;;5052115;28;20466;-73
2021/01/01 08:02:56;;;;;;;8.20;4.27;;;3.00;88.80;;;;;;5051250;28;20198;-74
2021/01/01 08:05:22;;;;;;;9.20;4.37;;;3.00;88.90;;;;;;5052064;28;20029;-73
2021/01/01 08:07:48;;;;;;;7.57;4.27;;;3.00;89.10;;;;;;5051280;28;20532;-73
2021/01/01 08:10:13;;;;;;;7.47;4.30;;;3.00;89.10;;;;;;5053177;28;20021;-74
2021/01/01 08:12:48;;;;;;;11.27;5.10;;;3.10;89.10;;;;;;5052367;28;20083;-72
2021/01/01 08:15:29;;;;;;;8.13;4.57;;;3.10;88.80;;;;;;5051736;28;20040;-73
2021/01/01 08:17:55;;;;;;;8.60;4.57;;;3.10;88.70;;;;;;5052648;28;20104;-74
2021/01/01 08:20:21;;;;;;;9.10;4.70;;;3.10;88.80;;;;;;5051610;28;20128;-74
2021/01/01 08:22:48;;;;;;;7.73;4.27;;;3.00;88.80;;;;;;5050760;28;20498;-73
2021/01/01 08:25:16;;;;;;;9.90;4.77;;;3.10;89.00;;;;;;5051618;28;20033;-74
2021/01/01 08:27:43;;;;;;;10.83;5.50;;;3.10;89.00;;;;;;5052236;28;20086;-73
2021/01/01 08:30:10;;;;;;;10.87;5.23;;;3.10;89.10;;;;;;5051452;28;20025;-74
2021/01/01 08:32:38;;;;;;;11.10;5.17;;;3.10;89.00;;;;;;5051437;28;20076;-73
2021/01/01 08:35:08;;;;;;;9.13;4.50;;;3.10;89.10;;;;;;5052378;28;20108;-73
2021/01/01 08:37:33;;;;;;;11.03;5.50;;;3.10;89.80;;;;;;5051443;28;20052;-74
2021/01/01 08:40:10;;;;;;;9.33;4.83;;;3.00;88.90;;;;;;5050734;28;20470;-74
2021/01/01 08:42:37;;;;;;;11.53;5.57;;;3.00;89.10;;;;;;5052550;28;20025;-74
2021/01/01 08:45:05;;;;;;;10.47;5.13;;;3.10;89.10;;;;;;5050622;28;20063;-74
2021/01/01 08:47:51;;;;;;;10.37;5.37;;;3.10;89.20;;;;;;5051406;28;20033;-74
2021/01/01 08:50:28;;;;;;;11.73;5.20;;;3.10;89.30;;;;;;5052657;28;20037;-74
2021/01/01 08:53:03;;;;;;;10.40;5.13;;;3.20;88.70;;;;;;5050643;28;20029;-74
2021/01/01 08:55:30;;;;;;;10.87;5.73;;;3.20;88.40;;;;;;5052485;28;20028;-74
2021/01/01 08:58:09;;;;;;;12.77;6.17;;;3.20;88.40;;;;;;5051887;28;20025;-73
2021/01/01 09:00:35;;;;;;;11.53;5.60;;;3.20;88.50;;;;;;5051160;28;20025;-74
2021/01/01 09:03:03;;;;;;;11.40;5.90;;;3.20;88.50;;;;;;5051341;28;20081;-74
2021/01/01 09:05:29;;;;;;;11.67;6.40;;;3.20;88.60;;;;;;5055402;28;20079;-74
2021/01/01 09:08:11;;;;;;;10.63;5.70;;;3.20;88.70;;;;;;5055897;28;20435;-74
2021/01/01 09:10:39;;;;;;;13.77;5.88;;;3.20;88.50;;;;;;5054976;28;20029;-74
2021/01/01 09:13:23;;;;;;;10.00;5.50;;;3.20;88.40;;;;;;5054230;28;20040;-74
2021/01/01 09:16:15;;;;;;;12.93;5.60;;;3.20;88.80;;;;;;5054585;28;20075;-74
2021/01/01 09:18:41;;;;;;;13.00;5.97;;;3.20;88.90;;;;;;5055049;28;20029;-74
2021/01/01 09:21:10;;;;;;;9.63;5.03;;;3.20;89.30;;;;;;5054931;28;20274;-74
2021/01/01 09:23:36;;;;;;;12.67;5.70;;;3.20;89.10;;;;;;5054380;28;20087;-74
2021/01/01 09:26:02;;;;;;;12.43;6.17;;;3.30;89.20;;;;;;5054369;28;20039;-74
2021/01/01 09:28:29;;;;;;;12.40;6.43;;;3.30;89.10;;;;;;5054948;28;20025;-74
2021/01/01 09:30:54;;;;;;;10.80;5.77;;;3.30;89.10;;;;;;5054217;28;20028;-73
2021/01/01 09:33:20;;;;;;;13.40;6.53;;;3.30;89.00;;;;;;5054844;28;20568;-74
2021/01/01 09:35:46;;;;;;;12.70;6.57;;;3.30;89.20;;;;;;5055669;28;20032;-74
2021/01/01 09:38:12;;;;;;;14.13;6.67;;;3.40;89.00;;;;;;5054861;28;20021;-73
2021/01/01 09:40:37;;;;;;;15.23;6.50;;;3.40;88.80;;;;;;5056215;28;20032;-73
2021/01/01 09:43:07;;;;;;;14.27;6.27;;;3.50;88.70;;;;;;5055177;28;20032;-74
2021/01/01 09:45:37;;;;;;;17.00;7.10;;;3.50;88.60;;;;;;5055469;28;20470;-74
2021/01/01 09:48:04;;;;;;;11.67;6.50;;;3.50;89.10;;;;;;5055248;28;20036;-73
2021/01/01 09:50:30;;;;;;;14.80;6.57;;;3.50;88.50;;;;;;5054285;28;20421;-74
2021/01/01 09:52:55;;;;;;;14.07;6.57;;;3.60;88.40;;;;;;5054803;28;20087;-73
2021/01/01 09:55:21;;;;;;;13.07;6.93;;;3.60;88.00;;;;;;5055747;28;20029;-74
2021/01/01 09:57:48;;;;;;;14.43;6.77;;;3.60;88.40;;;;;;5053672;28;20458;-74
2021/01/01 10:00:18;;;;;;;12.93;6.60;;;3.60;88.60;;;;;;5054323;28;20036;-74
2021/01/01 10:02:44;;;;;;;14.73;7.37;;;3.60;87.90;;;;;;5055543;28;20048;-74
2021/01/01 10:05:11;;;;;;;15.93;7.03;;;3.60;87.80;;;;;;5054363;28;20051;-74
2021/01/01 10:07:37;;;;;;;13.33;7.30;;;3.70;87.60;;;;;;5055519;28;20041;-74
2021/01/01 10:10:05;;;;;;;14.23;7.00;;;3.70;87.60;;;;;;5054740;28;20021;-74
2021/01/01 10:12:31;;;;;;;14.43;6.33;;;3.70;87.30;;;;;;5054026;28;20032;-74
2021/01/01 10:15:00;;;;;;;14.53;7.03;;;3.80;86.90;;;;;;5054542;28;20025;-74
2021/01/01 10:17:29;;;;;;;15.40;7.03;;;3.80;86.70;;;;;;5053948;28;20025;-74
2021/01/01 10:19:55;;;;;;;13.93;6.83;;;3.80;87.10;;;;;;5052877;28;20052;-73
2021/01/01 10:22:20;;;;;;;14.17;6.90;;;3.90;86.80;;;;;;5055187;28;20121;-74
2021/01/01 10:24:47;;;;;;;14.00;6.60;;;3.90;86.50;;;;;;5054040;28;20524;-73
2021/01/01 10:27:14;;;;;;;14.13;6.73;;;3.90;86.10;;;;;;5055045;28;20021;-73
2021/01/01 10:29:40;;;;;;;14.77;7.33;;;3.90;86.10;;;;;;5053709;28;20124;-74
2021/01/01 10:32:13;;;;;;;15.67;6.90;;;4.00;86.50;;;;;;5053069;28;20029;-73
2021/01/01 10:34:41;;;;;;;16.13;7.60;;;4.10;86.00;;;;;;5054955;28;20112;-74
2021/01/01 10:37:06;;;;;;;13.67;7.03;;;4.20;86.40;;;;;;5052966;28;20037;-74
2021/01/01 10:39:32;;;;;;;14.27;6.97;;;4.20;86.70;;;;;;5053662;28;20373;-74
2021/01/01 10:41:58;;;;;;;15.53;7.67;;;4.20;86.00;;;;;;5052941;28;20447;-73
2021/01/01 10:44:23;;;;;;;16.67;7.80;;;4.20;85.90;;;;;;5053417;28;20075;-74
2021/01/01 10:46:52;;;;;;;14.53;6.90;;;4.30;86.50;;;;;;5052783;28;20115;-74
2021/01/01 10:49:19;;;;;;;14.57;7.27;;;4.30;86.10;;;;;;5053345;28;20025;-74
2021/01/01 10:51:44;;;;;;;15.53;7.53;;;4.30;85.70;;;;;;5052951;28;20494;-74
2021/01/01 10:54:10;;;;;;;14.90;7.03;;;4.40;85.90;;;;;;5053984;28;20128;-74
2021/01/01 10:56:36;;;;;;;14.87;7.20;;;4.40;85.40;;;;;;5054530;28;20025;-74
2021/01/01 10:59:01;;;;;;;15.20;7.00;;;4.40;84.40;;;;;;5053832;28;20025;-73
2021/01/01 11:01:27;;;;;;;18.93;7.67;;;4.30;84.30;;;;;;5053077;28;20040;-74
2021/01/01 11:03:53;;;;;;;14.87;6.97;;;4.30;84.30;;;;;;5053711;28;20029;-73
2021/01/01 11:06:19;;;;;;;14.13;7.23;;;4.30;84.50;;;;;;5054278;28;20167;-74
2021/01/01 11:08:45;;;;;;;15.50;7.17;;;4.40;84.10;;;;;;5054287;28;20419;-74
2021/01/01 11:11:13;;;;;;;14.40;7.67;;;4.50;84.10;;;;;;5052350;28;20032;-73
2021/01/01 11:13:57;;;;;;;16.53;7.70;;;4.60;83.60;;;;;;5052841;28;20029;-74
2021/01/01 12:22:53;;;;;;;14.30;7.27;;;5.00;81.00;;;;;;5052790;28;20039;-74
2021/01/01 12:25:18;;;;;;;16.57;7.30;;;5.00;81.50;;;;;;5051359;28;20041;-74
2021/01/01 12:27:45;;;;;;;14.77;7.30;;;4.90;80.50;;;;;;5051741;28;20032;-74
2021/01/01 12:30:12;;;;;;;14.93;7.03;;;4.90;80.40;;;;;;5050865;28;20025;-74
2021/01/01 12:32:39;;;;;;;16.23;7.13;;;4.90;80.50;;;;;;5051602;28;20537;-74
2021/01/01 12:35:07;;;;;;;15.00;7.60;;;5.00;80.80;;;;;;5050845;28;20029;-73
2021/01/01 12:37:32;;;;;;;15.07;7.57;;;5.00;80.90;;;;;;5051868;28;20048;-74
2021/01/01 12:39:58;;;;;;;15.90;7.57;;;5.00;80.80;;;;;;5050713;28;20470;-73
2021/01/01 12:42:24;;;;;;;15.37;7.43;;;5.20;80.70;;;;;;5052641;28;20025;-74
2021/01/01 12:44:50;;;;;;;14.67;7.47;;;5.40;80.00;;;;;;5051227;28;20091;-74
2021/01/01 12:47:15;;;;;;;14.57;6.93;;;5.60;79.40;;;;;;5050702;28;20021;-74
2021/01/01 12:49:45;;;;;;;12.90;6.27;;;5.70;78.10;;;;;;5050874;28;20029;-74
2021/01/01 12:52:12;;;;;;;13.77;6.43;;;5.60;77.80;;;;;;5051884;28;20083;-73
2021/01/01 12:54:38;;;;;;;12.17;5.90;;;5.60;77.80;;;;;;5052445;28;20116;-74
2021/01/01 12:57:03;;;;;;;12.60;6.13;;;5.40;77.80;;;;;;5050560;28;20108;-73
2021/01/01 12:59:29;;;;;;;12.50;5.90;;;5.40;77.30;;;;;;5051142;28;20025;-74
2021/01/01 13:01:55;;;;;;;14.57;6.10;;;5.40;77.50;;;;;;5051848;28;20421;-73
2021/01/01 13:04:21;;;;;;;10.70;5.43;;;5.40;76.70;;;;;;5051019;28;20543;-74
2021/01/01 13:06:46;;;;;;;10.57;5.27;;;5.40;76.00;;;;;;5052365;28;20029;-74
2021/01/01 13:09:12;;;;;;;11.67;5.57;;;5.50;75.90;;;;;;5050475;28;20025;-74
2021/01/01 13:11:45;;;;;;;10.67;5.40;;;5.50;74.90;;;;;;5050971;28;20028;-74
2021/01/01 13:14:11;;;;;;;10.23;5.17;;;5.50;75.10;;;;;;5050472;28;20029;-73
2021/01/01 13:16:37;;;;;;;10.33;5.47;;;5.60;75.20;;;;;;5051992;28;20401;-74
2021/01/01 13:19:03;;;;;;;9.33;5.00;;;5.60;74.30;;;;;;5050441;28;20029;-73
2021/01/01 13:21:35;;;;;;;10.07;4.63;;;5.50;74.30;;;;;;5051082;28;20391;-74
2021/01/01 13:24:03;;;;;;;14.23;6.18;;;5.50;74.40;;;;;;5050986;28;20057;-74
2021/01/01 13:26:29;;;;;;;10.60;5.13;;;5.40;74.90;;;;;;5052134;28;20025;-74
2021/01/01 13:28:57;;;;;;;12.87;5.97;;;5.40;75.00;;;;;;5050922;28;20075;-74
2021/01/01 13:31:31;;;;;;;12.47;5.67;;;5.40;75.00;;;;;;5050817;28;20021;-74
2021/01/01 13:33:57;;;;;;;11.03;5.33;;;5.30;75.10;;;;;;5050302;28;20384;-73
2021/01/01 13:36:23;;;;;;;11.53;6.20;;;5.20;75.70;;;;;;5050947;28;20028;-74
2021/01/01 13:38:48;;;;;;;9.37;5.43;;;5.20;76.30;;;;;;5051999;28;20430;-74
2021/01/01 13:41:14;;;;;;;13.50;5.97;;;5.10;76.40;;;;;;5050228;28;20029;-74
2021/01/01 13:43:41;;;;;;;11.13;5.30;;;5.10;75.60;;;;;;5050838;28;20540;-74
2021/01/01 13:46:08;;;;;;;10.27;5.40;;;5.00;75.90;;;;;;5050113;28;20037;-74
2021/01/01 13:48:35;;;;;;;12.00;5.33;;;5.00;76.40;;;;;;5050765;28;20565;-73
2021/01/01 13:51:01;;;;;;;9.53;5.47;;;5.00;77.00;;;;;;5053805;28;20029;-74
2021/01/01 13:53:26;;;;;;;11.07;5.77;;;5.00;77.30;;;;;;5054416;28;20403;-74
2021/01/01 13:55:52;;;;;;;10.90;5.43;;;5.00;76.70;;;;;;5055325;28;20025;-74
2021/01/01 13:58:18;;;;;;;11.03;5.77;;;5.00;76.90;;;;;;5055004;28;20255;-74
2021/01/01 14:00:45;;;;;;;12.57;5.80;;;5.00;77.20;;;;;;5053970;28;20032;-74
2021/01/01 14:03:11;;;;;;;11.00;5.43;;;5.00;77.80;;;;;;5053508;28;20068;-74